Terminal Aerodrome Forecast
Issued by NWS

Home | Current Version | Previous Version | Graphics & Text | Print | Product List | Glossary On
Versions: 1 2 3 4 5 6 7 8 9 10 11 12
000
FTUS43 KTOP 191700
TAFFOE
TAF
KFOE 191722Z 1918/2018 19011KT P6SM SCT035
     FM200100 18005KT P6SM SCT140
     FM201500 19014G20KT P6SM FEW035=

USA.gov is the U.S. government's official web portal to all federal, state and local government web resources and services.